createdAt,value
2023-07-21T00:01:03.726Z,19.95
2023-07-21T00:03:30.944Z,20.10
2023-07-21T00:05:59.932Z,20.23
2023-07-21T00:08:27.424Z,19.79
2023-07-21T00:10:56.529Z,19.47
2023-07-21T00:13:24.226Z,19.48
2023-07-21T00:15:51.426Z,19.48
2023-07-21T00:18:18.487Z,19.41
2023-07-21T00:20:45.536Z,19.25
2023-07-21T00:23:12.590Z,19.17
2023-07-21T00:25:39.749Z,18.94
2023-07-21T00:28:08.418Z,18.93
2023-07-21T00:30:35.749Z,19.14
2023-07-21T00:33:02.835Z,19.20
2023-07-21T00:35:30.203Z,19.10
2023-07-21T00:37:57.253Z,19.10
2023-07-21T00:40:24.282Z,19.27
2023-07-21T00:42:51.255Z,19.46
2023-07-21T00:45:20.134Z,19.60
2023-07-21T00:47:48.557Z,19.71
2023-07-21T00:50:16.590Z,19.81
2023-07-21T00:52:44.289Z,19.87
2023-07-21T00:55:12.242Z,19.90
2023-07-21T00:57:39.795Z,19.70
2023-07-21T01:00:08.371Z,18.89
2023-07-21T01:02:37.180Z,18.49
2023-07-21T01:05:06.980Z,18.42
2023-07-21T01:07:37.449Z,18.56
2023-07-21T01:10:06.469Z,18.59
2023-07-21T01:12:33.549Z,18.48
2023-07-21T01:15:00.580Z,18.66
2023-07-21T01:17:29.588Z,18.82
2023-07-21T01:20:00.267Z,18.84
2023-07-21T01:22:36.001Z,18.90
2023-07-21T01:25:13.789Z,18.93
2023-07-21T01:27:43.023Z,18.91
2023-07-21T01:30:14.457Z,18.92
2023-07-21T01:32:43.752Z,18.86
2023-07-21T01:35:15.178Z,18.98
2023-07-21T01:37:46.592Z,19.04
2023-07-21T01:40:17.196Z,19.11
2023-07-21T01:42:47.451Z,19.22
2023-07-21T01:45:15.269Z,19.02
2023-07-21T01:47:45.519Z,19.15
2023-07-21T01:50:16.884Z,18.87
2023-07-21T01:52:47.082Z,19.04
2023-07-21T01:55:27.588Z,19.09
2023-07-21T01:58:01.790Z,19.07
2023-07-21T02:00:48.004Z,19.00
2023-07-21T02:03:20.492Z,18.60
2023-07-21T02:05:47.775Z,18.53
2023-07-21T02:08:15.057Z,18.67
2023-07-21T02:10:43.863Z,18.85
2023-07-21T02:13:19.569Z,19.03
2023-07-21T02:15:46.776Z,19.07
2023-07-21T02:18:14.204Z,19.10
2023-07-21T02:20:44.854Z,19.16
2023-07-21T02:23:12.721Z,19.23
2023-07-21T02:25:40.823Z,19.30
2023-07-21T02:28:09.165Z,19.32
2023-07-21T02:30:36.269Z,19.31
2023-07-21T02:33:03.309Z,19.32
2023-07-21T02:35:30.362Z,19.30
2023-07-21T02:37:58.762Z,19.26
2023-07-21T02:40:25.712Z,19.23
2023-07-21T02:42:52.904Z,19.24
2023-07-21T02:45:21.604Z,19.25
2023-07-21T02:47:49.150Z,19.33
2023-07-21T02:50:18.359Z,19.35
2023-07-21T02:52:45.927Z,19.26
2023-07-21T02:55:13.353Z,19.17
2023-07-21T02:57:41.410Z,19.01
2023-07-21T03:00:15.166Z,18.95
2023-07-21T03:02:55.688Z,18.88
2023-07-21T03:05:23.297Z,18.88
2023-07-21T03:07:52.604Z,18.84
2023-07-21T03:10:19.690Z,18.77
2023-07-21T03:12:50.671Z,18.59
2023-07-21T03:15:21.854Z,18.60
2023-07-21T03:18:10.618Z,18.69
2023-07-21T03:21:01.284Z,18.66
2023-07-21T03:23:28.794Z,18.54
2023-07-21T03:25:59.000Z,18.26
2023-07-21T03:28:28.532Z,18.23
2023-07-21T03:30:58.918Z,18.05
2023-07-21T03:33:27.757Z,18.11
2023-07-21T03:36:07.995Z,18.24
2023-07-21T03:38:36.235Z,18.36
2023-07-21T03:41:05.355Z,18.45
2023-07-21T03:43:35.192Z,18.49
2023-07-21T03:46:05.806Z,18.47
2023-07-21T03:48:43.927Z,18.44
2023-07-21T03:51:11.497Z,18.54
2023-07-21T03:53:43.523Z,18.66
2023-07-21T03:56:11.640Z,18.72
2023-07-21T03:58:38.924Z,18.75
2023-07-21T04:01:06.350Z,18.43
2023-07-21T04:03:34.626Z,18.35
2023-07-21T04:06:06.462Z,18.40
2023-07-21T04:08:33.486Z,18.52
2023-07-21T04:11:00.419Z,18.61
2023-07-21T04:13:28.801Z,18.75
2023-07-21T04:15:55.804Z,18.90
2023-07-21T04:18:22.864Z,18.95
2023-07-21T04:20:50.148Z,19.03
2023-07-21T04:23:18.509Z,19.02
2023-07-21T04:25:47.209Z,18.92
2023-07-21T04:28:14.884Z,19.07
2023-07-21T04:30:43.017Z,19.63
2023-07-21T04:33:10.143Z,19.89
2023-07-21T04:35:37.290Z,19.90
2023-07-21T04:38:09.467Z,19.64
2023-07-21T04:40:44.785Z,19.30
2023-07-21T04:43:12.011Z,19.12
2023-07-21T04:45:41.975Z,19.00
2023-07-21T04:48:13.802Z,19.00
2023-07-21T04:50:44.846Z,18.83
2023-07-21T04:53:11.806Z,18.49
2023-07-21T04:55:39.030Z,18.41
2023-07-21T04:58:12.193Z,18.67
2023-07-21T05:00:39.345Z,18.79
2023-07-21T05:03:06.675Z,18.78
2023-07-21T05:05:34.444Z,18.87
2023-07-21T05:08:01.969Z,18.66
2023-07-21T05:10:34.623Z,18.75
2023-07-21T05:13:06.288Z,18.72
2023-07-21T05:15:45.402Z,18.86
2023-07-21T05:18:32.497Z,18.59
2023-07-21T05:21:24.066Z,18.44
2023-07-21T05:23:59.206Z,18.59
2023-07-21T05:26:26.675Z,18.50
2023-07-21T05:28:54.745Z,18.32
2023-07-21T05:31:31.386Z,18.34
2023-07-21T05:34:05.863Z,18.54
2023-07-21T05:36:33.271Z,18.80
2023-07-21T05:39:00.956Z,18.91
2023-07-21T05:41:29.980Z,19.02
2023-07-21T05:43:59.900Z,19.28
2023-07-21T05:46:30.628Z,19.51
2023-07-21T05:49:07.981Z,19.71
2023-07-21T05:51:35.936Z,19.86
2023-07-21T05:54:19.798Z,19.99
2023-07-21T05:56:49.061Z,20.10
2023-07-21T05:59:26.501Z,19.67
2023-07-21T06:01:58.965Z,19.75
2023-07-21T06:04:35.353Z,19.81
2023-07-21T06:07:40.386Z,19.78
2023-07-21T06:10:24.224Z,19.88
2023-07-21T06:13:15.004Z,19.77
2023-07-21T06:16:02.807Z,20.07
2023-07-21T06:18:41.013Z,20.46
2023-07-21T06:21:10.641Z,20.83
2023-07-21T06:23:40.906Z,21.26
2023-07-21T06:26:10.377Z,21.48
2023-07-21T06:28:37.605Z,21.95
2023-07-21T06:31:05.670Z,22.10
2023-07-21T06:33:49.848Z,22.42
2023-07-21T06:36:39.321Z,22.46
2023-07-21T06:39:15.654Z,22.94
2023-07-21T06:41:54.641Z,23.00
2023-07-21T06:44:41.849Z,22.70
2023-07-21T06:47:27.043Z,22.53
2023-07-21T06:50:13.145Z,22.97
2023-07-21T06:52:46.743Z,23.86
2023-07-21T06:55:15.472Z,24.92
2023-07-21T06:57:43.698Z,24.93
2023-07-21T07:00:17.094Z,24.83
2023-07-21T07:02:47.044Z,24.48
2023-07-21T07:05:18.661Z,23.98
2023-07-21T07:07:50.116Z,23.94
2023-07-21T07:10:18.092Z,23.67
2023-07-21T07:12:45.839Z,23.50
2023-07-21T07:15:12.943Z,23.30
2023-07-21T07:17:39.946Z,23.30
2023-07-21T07:20:08.937Z,23.20
2023-07-21T07:22:35.901Z,23.20
2023-07-21T07:25:07.138Z,23.13
2023-07-21T07:27:35.577Z,22.54
2023-07-21T07:30:03.057Z,22.70
2023-07-21T07:32:31.587Z,22.76
2023-07-21T07:34:58.557Z,22.59
2023-07-21T07:37:27.888Z,22.56
2023-07-21T07:39:55.320Z,22.55
2023-07-21T07:42:24.135Z,22.23
2023-07-21T07:44:53.225Z,22.25
2023-07-21T07:47:22.731Z,21.89
2023-07-21T07:49:52.239Z,21.60
2023-07-21T07:52:19.708Z,21.61
2023-07-21T07:54:46.705Z,21.82
2023-07-21T07:57:13.734Z,21.99
2023-07-21T07:59:42.980Z,22.03
2023-07-21T08:02:10.789Z,21.93
2023-07-21T08:04:38.317Z,21.81
2023-07-21T08:07:08.566Z,21.89
2023-07-21T08:09:36.543Z,21.95
2023-07-21T08:12:04.543Z,21.91
2023-07-21T08:14:31.657Z,21.97
2023-07-21T08:17:04.451Z,22.14
2023-07-21T08:19:32.139Z,22.50
2023-07-21T08:22:04.089Z,22.65
2023-07-21T08:24:31.186Z,22.49
2023-07-21T08:26:58.537Z,22.57
2023-07-21T08:29:25.454Z,22.57
2023-07-21T08:31:53.082Z,22.91
2023-07-21T08:34:21.756Z,23.18
2023-07-21T08:36:54.241Z,23.41
2023-07-21T08:39:23.104Z,23.62
2023-07-21T08:41:51.820Z,23.61
2023-07-21T08:44:20.787Z,23.65
2023-07-21T08:46:48.021Z,23.73
2023-07-21T08:49:17.833Z,23.73
2023-07-21T08:51:47.915Z,23.44
2023-07-21T08:54:19.823Z,23.48
2023-07-21T08:56:47.042Z,23.61
2023-07-21T08:59:19.933Z,23.77
2023-07-21T09:01:46.927Z,23.92
2023-07-21T09:04:19.268Z,24.10
2023-07-21T09:06:53.069Z,24.16
2023-07-21T09:09:21.065Z,24.31
2023-07-21T09:11:50.574Z,24.31
2023-07-21T09:14:35.548Z,24.35
2023-07-21T09:17:07.360Z,24.36
2023-07-21T09:19:37.282Z,24.43
2023-07-21T09:22:07.138Z,24.61
2023-07-21T09:24:35.866Z,24.89
2023-07-21T09:27:32.649Z,25.45
2023-07-21T09:30:01.335Z,25.85
2023-07-21T09:32:28.368Z,26.15
2023-07-21T09:34:58.608Z,26.43
2023-07-21T09:37:28.837Z,26.63
2023-07-21T09:39:59.313Z,26.78
2023-07-21T09:42:29.686Z,26.80
2023-07-21T09:44:59.206Z,26.76
2023-07-21T09:47:26.634Z,26.66
2023-07-21T09:49:56.375Z,26.14
2023-07-21T09:52:27.318Z,26.34
2023-07-21T09:55:07.795Z,26.67
2023-07-21T09:57:42.840Z,26.83
2023-07-21T10:00:13.797Z,27.00
2023-07-21T10:02:42.634Z,27.20
2023-07-21T10:05:11.095Z,27.26
2023-07-21T10:07:43.972Z,27.35
2023-07-21T10:10:14.760Z,27.47
2023-07-21T10:12:49.807Z,27.88
2023-07-21T10:15:20.023Z,28.14
2023-07-21T10:17:59.606Z,28.73
2023-07-21T10:20:42.366Z,29.20
2023-07-21T10:23:26.461Z,29.04
2023-07-21T10:25:57.960Z,28.91
2023-07-21T10:28:34.209Z,29.08
2023-07-21T10:31:33.615Z,28.95
2023-07-21T10:34:14.621Z,29.24
2023-07-21T10:36:48.591Z,29.57
2023-07-21T10:39:19.940Z,29.80
2023-07-21T10:41:49.372Z,29.96
2023-07-21T10:44:17.259Z,30.04
2023-07-21T10:46:46.668Z,30.16
2023-07-21T10:49:20.547Z,30.47
2023-07-21T10:51:53.938Z,30.61
2023-07-21T10:54:22.941Z,30.04
2023-07-21T10:56:53.808Z,30.26
2023-07-21T10:59:24.703Z,30.42
2023-07-21T11:01:54.492Z,30.61
2023-07-21T11:04:26.574Z,30.50
2023-07-21T11:06:57.165Z,30.24
2023-07-21T11:09:28.449Z,30.21
2023-07-21T11:11:58.866Z,30.40
2023-07-21T11:14:29.318Z,30.05
2023-07-21T11:17:00.373Z,30.55
2023-07-21T11:19:30.001Z,30.75
2023-07-21T11:22:00.507Z,30.44
2023-07-21T11:24:35.581Z,30.56
2023-07-21T11:27:10.689Z,30.64
2023-07-21T11:29:43.824Z,30.30
2023-07-21T11:32:19.226Z,29.68
2023-07-21T11:34:58.149Z,29.38
2023-07-21T11:37:39.012Z,29.29
2023-07-21T11:40:09.146Z,28.49
2023-07-21T11:42:48.352Z,28.48
2023-07-21T11:45:37.325Z,28.42
2023-07-21T11:48:14.603Z,28.31
2023-07-21T11:50:51.175Z,28.16
2023-07-21T11:53:25.302Z,28.27
2023-07-21T11:55:53.668Z,28.08
2023-07-21T11:58:22.283Z,28.03
2023-07-21T12:00:50.494Z,28.03
2023-07-21T12:03:20.981Z,27.87
2023-07-21T12:05:50.486Z,27.60
2023-07-21T12:08:17.682Z,27.42
2023-07-21T12:10:44.694Z,27.42
2023-07-21T12:13:14.670Z,27.34
2023-07-21T12:15:53.393Z,27.32
2023-07-21T12:18:25.975Z,27.40
2023-07-21T12:20:55.005Z,27.48
2023-07-21T12:23:27.644Z,27.35
2023-07-21T12:25:54.579Z,27.00
2023-07-21T12:28:26.277Z,26.71
2023-07-21T12:30:54.662Z,26.76
2023-07-21T12:33:25.597Z,26.69
2023-07-21T12:35:54.005Z,26.42
2023-07-21T12:38:22.403Z,26.20
2023-07-21T12:40:49.397Z,26.15
2023-07-21T12:43:18.445Z,26.02
2023-07-21T12:45:50.133Z,25.96
2023-07-21T12:48:17.609Z,25.97
2023-07-21T12:51:49.342Z,25.98
2023-07-21T12:55:33.020Z,25.70
2023-07-21T12:57:47.682Z,25.40
2023-07-21T13:00:16.262Z,25.14
2023-07-21T13:02:45.306Z,24.99
2023-07-21T13:05:13.234Z,24.91
2023-07-21T13:07:40.615Z,24.81
2023-07-21T13:10:11.398Z,24.61
2023-07-21T13:12:38.421Z,24.44
2023-07-21T13:15:06.945Z,24.21
2023-07-21T13:17:34.395Z,24.05
2023-07-21T13:20:04.645Z,23.77
2023-07-21T13:22:32.194Z,23.49
2023-07-21T13:25:00.794Z,23.19
2023-07-21T13:27:28.935Z,23.19
2023-07-21T13:29:56.393Z,23.06
2023-07-21T13:32:23.775Z,22.97
2023-07-21T13:34:52.176Z,22.72
2023-07-21T13:37:20.711Z,22.46
2023-07-21T13:39:49.974Z,22.36
2023-07-21T13:42:18.674Z,22.27
2023-07-21T13:44:46.288Z,21.92
2023-07-21T13:47:14.257Z,21.91
2023-07-21T13:49:46.135Z,21.80
2023-07-21T13:52:15.032Z,21.76
2023-07-21T13:54:45.592Z,21.68
2023-07-21T13:57:13.434Z,21.49
2023-07-21T13:59:40.808Z,21.25
2023-07-21T14:02:08.591Z,21.02
2023-07-21T14:04:35.708Z,20.80
2023-07-21T14:07:02.660Z,20.69
2023-07-21T14:09:31.911Z,20.59
2023-07-21T14:12:00.920Z,20.54
2023-07-21T14:14:28.491Z,20.48
2023-07-21T14:16:55.595Z,20.28
2023-07-21T14:19:22.756Z,20.19
2023-07-21T14:21:50.201Z,20.21
2023-07-21T14:24:17.193Z,20.29
2023-07-21T14:26:44.989Z,20.35
2023-07-21T14:29:14.772Z,20.41
2023-07-21T14:31:43.292Z,20.40
2023-07-21T14:34:10.188Z,20.40
2023-07-21T14:36:37.427Z,20.31
2023-07-21T14:39:04.618Z,19.97
2023-07-21T14:41:32.375Z,18.63
2023-07-21T14:43:59.524Z,17.90
2023-07-21T14:46:28.699Z,17.56
2023-07-21T14:48:56.235Z,17.23
2023-07-21T14:51:24.171Z,16.93
2023-07-21T14:53:51.157Z,17.25
2023-07-21T14:56:18.674Z,17.76
2023-07-21T14:58:46.876Z,17.67
2023-07-21T15:01:15.956Z,18.02
2023-07-21T15:03:49.115Z,18.17
2023-07-21T15:06:17.320Z,18.27
2023-07-21T15:08:45.300Z,18.04
2023-07-21T15:11:15.333Z,18.12
2023-07-21T15:13:43.136Z,18.23
2023-07-21T15:16:12.008Z,18.23
2023-07-21T15:18:42.072Z,18.27
2023-07-21T15:21:10.591Z,18.16
2023-07-21T15:23:38.317Z,18.43
2023-07-21T15:26:05.589Z,18.31
2023-07-21T15:28:33.465Z,18.37
2023-07-21T15:31:05.254Z,18.48
2023-07-21T15:33:33.699Z,18.45
2023-07-21T15:36:01.718Z,18.71
2023-07-21T15:38:33.054Z,18.87
2023-07-21T15:41:00.958Z,19.16
2023-07-21T15:43:29.351Z,18.97
2023-07-21T15:45:57.283Z,19.34
2023-07-21T15:48:26.168Z,19.02
2023-07-21T15:50:53.530Z,18.92
2023-07-21T15:53:22.814Z,19.00
2023-07-21T15:55:51.041Z,19.18
2023-07-21T15:58:18.859Z,19.46
2023-07-21T16:00:47.717Z,19.57
2023-07-21T16:03:15.282Z,19.52
2023-07-21T16:05:42.406Z,19.82
2023-07-21T16:08:11.829Z,20.21
2023-07-21T16:10:40.285Z,20.29
2023-07-21T16:13:11.132Z,20.12
2023-07-21T16:15:38.316Z,20.24
2023-07-21T16:18:08.614Z,19.92
2023-07-21T16:20:37.043Z,20.04
2023-07-21T16:23:05.036Z,19.91
2023-07-21T16:25:33.067Z,19.79
2023-07-21T16:28:00.308Z,19.68
2023-07-21T16:30:28.977Z,19.86
2023-07-21T16:32:56.951Z,19.71
2023-07-21T16:35:23.915Z,19.68
2023-07-21T16:37:51.321Z,19.84
2023-07-21T16:40:20.517Z,19.94
2023-07-21T16:42:49.112Z,19.92
2023-07-21T16:45:18.054Z,20.15
2023-07-21T16:47:49.425Z,20.41
2023-07-21T16:50:18.059Z,20.36
2023-07-21T16:52:45.746Z,20.16
2023-07-21T16:55:15.666Z,20.00
2023-07-21T16:57:44.190Z,19.94
2023-07-21T17:00:12.633Z,20.03
2023-07-21T17:02:40.910Z,20.06
2023-07-21T17:05:28.909Z,19.88
2023-07-21T17:07:58.422Z,20.18
2023-07-21T17:10:25.651Z,20.37
2023-07-21T17:12:52.550Z,20.53
2023-07-21T17:15:22.030Z,20.46
2023-07-21T17:17:52.376Z,20.18
2023-07-21T17:20:21.028Z,20.09
2023-07-21T17:22:50.297Z,20.02
2023-07-21T17:25:22.539Z,20.21
2023-07-21T17:27:54.085Z,20.38
2023-07-21T17:30:21.348Z,20.01
2023-07-21T17:32:48.683Z,20.11
2023-07-21T17:35:15.731Z,19.97
2023-07-21T17:37:44.171Z,19.99
2023-07-21T17:40:12.802Z,20.15
2023-07-21T17:42:41.661Z,20.08
2023-07-21T17:45:15.276Z,20.11
2023-07-21T17:47:43.121Z,20.09
2023-07-21T17:50:11.480Z,20.18
2023-07-21T17:52:40.334Z,20.07
2023-07-21T17:55:11.421Z,20.10
2023-07-21T17:57:39.745Z,20.13
2023-07-21T18:00:13.894Z,20.09
2023-07-21T18:02:43.965Z,20.23
2023-07-21T18:05:15.689Z,20.45
2023-07-21T18:07:44.434Z,20.45
2023-07-21T18:10:16.417Z,20.53
2023-07-21T18:12:46.150Z,20.44
2023-07-21T18:15:13.512Z,20.55
2023-07-21T18:17:41.048Z,20.44
2023-07-21T18:20:10.709Z,20.43
2023-07-21T18:22:38.191Z,20.21
2023-07-21T18:25:09.165Z,20.09
2023-07-21T18:27:38.382Z,20.24
2023-07-21T18:30:09.487Z,20.23
2023-07-21T18:32:38.536Z,20.00
2023-07-21T18:35:06.752Z,19.97
2023-07-21T18:37:36.628Z,20.16
2023-07-21T18:40:06.488Z,20.22
2023-07-21T18:42:33.534Z,20.25
2023-07-21T18:45:02.918Z,20.35
2023-07-21T18:47:31.559Z,20.25
2023-07-21T18:49:59.121Z,20.15
2023-07-21T18:52:26.508Z,20.22
2023-07-21T18:54:55.840Z,20.04
2023-07-21T18:57:23.712Z,19.86
2023-07-21T18:59:53.692Z,19.73
2023-07-21T19:03:02.904Z,19.68
2023-07-21T19:05:59.865Z,19.58
2023-07-21T19:08:27.300Z,19.71
2023-07-21T19:10:55.004Z,19.48
2023-07-21T19:13:26.068Z,19.52
2023-07-21T19:15:53.703Z,19.47
2023-07-21T19:18:22.268Z,19.46
2023-07-21T19:20:49.972Z,19.37
2023-07-21T19:23:17.137Z,19.32
2023-07-21T19:25:50.793Z,19.30
2023-07-21T19:28:18.760Z,19.31
2023-07-21T19:30:46.558Z,19.33
2023-07-21T19:33:13.773Z,19.29
2023-07-21T19:35:42.313Z,19.40
2023-07-21T19:38:09.207Z,19.42
2023-07-21T19:40:39.317Z,19.52
2023-07-21T19:43:08.625Z,19.49
2023-07-21T19:45:37.494Z,19.56
2023-07-21T19:48:05.215Z,19.43
2023-07-21T19:50:35.096Z,19.25
2023-07-21T19:53:04.202Z,19.18
2023-07-21T19:55:35.793Z,19.28
2023-07-21T19:58:03.278Z,19.11
2023-07-21T20:00:30.769Z,18.98
2023-07-21T20:02:58.451Z,18.79
2023-07-21T20:05:26.593Z,18.46
2023-07-21T20:07:53.749Z,18.37
2023-07-21T20:10:23.692Z,18.46
2023-07-21T20:12:51.445Z,18.34
2023-07-21T20:15:20.496Z,18.33
2023-07-21T20:17:47.567Z,18.42
2023-07-21T20:20:14.650Z,18.28
2023-07-21T20:22:42.403Z,18.30
2023-07-21T20:25:09.876Z,18.31
2023-07-21T20:27:40.173Z,18.35
2023-07-21T20:30:08.620Z,18.32
2023-07-21T20:32:36.951Z,18.25
2023-07-21T20:35:05.556Z,18.36
2023-07-21T20:37:33.521Z,18.37
2023-07-21T20:40:00.357Z,18.43
2023-07-21T20:42:28.114Z,18.26
2023-07-21T20:44:56.310Z,18.09
2023-07-21T20:47:23.238Z,18.07
2023-07-21T20:49:50.243Z,17.95
2023-07-21T20:52:17.149Z,17.83
2023-07-21T20:54:44.360Z,17.75
2023-07-21T20:57:11.504Z,17.72
2023-07-21T20:59:45.268Z,17.82
2023-07-21T21:02:16.157Z,17.94
2023-07-21T21:04:43.517Z,18.02
2023-07-21T21:07:10.577Z,18.01
2023-07-21T21:09:37.504Z,17.95
2023-07-21T21:12:06.508Z,18.11
2023-07-21T21:14:33.545Z,18.11
2023-07-21T21:17:01.179Z,18.23
2023-07-21T21:19:29.610Z,18.27
2023-07-21T21:21:56.528Z,18.30
2023-07-21T21:24:23.469Z,18.37
2023-07-21T21:26:51.078Z,18.39
2023-07-21T21:29:18.322Z,18.23
2023-07-21T21:31:45.462Z,18.08
2023-07-21T21:34:13.638Z,18.11
2023-07-21T21:36:42.310Z,17.62
2023-07-21T21:39:10.384Z,17.46
2023-07-21T21:41:37.319Z,17.40
2023-07-21T21:44:04.821Z,17.26
2023-07-21T21:46:32.344Z,17.08
2023-07-21T21:48:59.469Z,17.09
2023-07-21T21:51:26.638Z,17.05
2023-07-21T21:53:54.870Z,17.12
2023-07-21T21:56:26.063Z,17.12
2023-07-21T21:58:53.250Z,17.16
2023-07-21T22:01:21.232Z,17.25
2023-07-21T22:03:48.514Z,17.51
2023-07-21T22:06:15.711Z,17.64
2023-07-21T22:08:42.633Z,17.72
2023-07-21T22:11:11.066Z,17.77
2023-07-21T22:13:39.342Z,17.67
2023-07-21T22:16:06.491Z,17.53
2023-07-21T22:18:34.161Z,17.78
2023-07-21T22:21:01.609Z,17.92
2023-07-21T22:23:28.737Z,17.94
2023-07-21T22:25:55.726Z,17.72
2023-07-21T22:28:24.528Z,17.61
2023-07-21T22:30:51.499Z,17.40
2023-07-21T22:33:18.546Z,17.23
2023-07-21T22:35:45.472Z,17.20
2023-07-21T22:38:12.415Z,17.22
2023-07-21T22:40:39.603Z,17.11
2023-07-21T22:43:06.561Z,17.28
2023-07-21T22:45:37.629Z,17.15
2023-07-21T22:48:05.660Z,17.28
2023-07-21T22:50:34.216Z,17.40
2023-07-21T22:53:01.269Z,17.54
2023-07-21T22:55:28.441Z,17.61
2023-07-21T22:57:55.435Z,17.69
2023-07-21T23:00:22.601Z,17.76
2023-07-21T23:02:50.968Z,17.79
2023-07-21T23:05:18.212Z,17.82
2023-07-21T23:07:45.140Z,17.86
2023-07-21T23:10:12.293Z,17.88
2023-07-21T23:12:39.877Z,17.93
2023-07-21T23:15:08.259Z,17.94
2023-07-21T23:17:37.396Z,17.94
2023-07-21T23:20:07.630Z,17.89
2023-07-21T23:22:35.075Z,17.87
2023-07-21T23:25:02.406Z,17.83
2023-07-21T23:27:31.039Z,17.84
2023-07-21T23:29:58.102Z,17.77
2023-07-21T23:32:25.363Z,17.80
2023-07-21T23:34:52.869Z,17.79
2023-07-21T23:37:21.728Z,17.67
2023-07-21T23:39:49.044Z,17.19
2023-07-21T23:42:16.133Z,17.14
2023-07-21T23:44:42.993Z,16.98
2023-07-21T23:47:10.970Z,16.74
2023-07-21T23:49:37.916Z,16.64
2023-07-21T23:52:06.380Z,16.62
2023-07-21T23:54:35.366Z,16.74
2023-07-21T23:57:08.472Z,16.80
2023-07-21T23:59:35.404Z,16.70
